createdAt,value
2023-04-25T00:00:51.148Z,434.6923
2023-04-25T00:01:52.166Z,435.3846
2023-04-25T00:02:53.411Z,435.4615
2023-04-25T00:03:54.575Z,433.3077
2023-04-25T00:04:55.591Z,434.4615
2023-04-25T00:05:56.477Z,435.3077
2023-04-25T00:06:57.383Z,434.6923
2023-04-25T00:07:58.449Z,435.0769
2023-04-25T00:08:59.482Z,436.6154
2023-04-25T00:10:00.573Z,440.2308
2023-04-25T00:11:01.597Z,439.3077
2023-04-25T00:12:02.642Z,436.8462
2023-04-25T00:13:03.686Z,436.2308
2023-04-25T00:14:04.764Z,436.8462
2023-04-25T00:15:05.813Z,435.6923
2023-04-25T00:16:06.840Z,437.6923
2023-04-25T00:17:07.848Z,435.0769
2023-04-25T00:18:08.906Z,435.2308
2023-04-25T00:19:09.948Z,433.5385
2023-04-25T00:20:11.021Z,432.6154
2023-04-25T00:21:12.029Z,431.3846
2023-04-25T00:22:13.094Z,429.5385
2023-04-25T00:23:14.113Z,428.5385
2023-04-25T00:24:15.169Z,429.7692
2023-04-25T00:25:16.245Z,431.3846
2023-04-25T00:26:17.270Z,432.0000
2023-04-25T00:27:18.338Z,430.8462
2023-04-25T00:28:19.392Z,429.1538
2023-04-25T00:29:20.428Z,431.2308
2023-04-25T00:30:21.519Z,431.7692
2023-04-25T00:31:22.598Z,433.3846
2023-04-25T00:32:23.579Z,433.9231
2023-04-25T00:33:24.591Z,434.6923
2023-04-25T00:34:25.649Z,434.2308
2023-04-25T00:35:26.712Z,436.3077
2023-04-25T00:36:27.721Z,434.9231
2023-04-25T00:37:28.766Z,432.8462
2023-04-25T00:38:29.811Z,433.3846
2023-04-25T00:39:30.838Z,434.0000
2023-04-25T00:40:31.877Z,433.3077
2023-04-25T00:41:33.013Z,435.1538
2023-04-25T00:42:34.004Z,434.8462
2023-04-25T00:43:35.039Z,435.3846
2023-04-25T00:44:36.087Z,436.7692
2023-04-25T00:45:37.176Z,436.7692
2023-04-25T00:46:38.250Z,435.3077
2023-04-25T00:47:39.283Z,434.9231
2023-04-25T00:48:40.259Z,435.0000
2023-04-25T00:49:41.338Z,435.6923
2023-04-25T00:50:42.382Z,435.5385
2023-04-25T00:51:43.419Z,435.5385
2023-04-25T00:52:44.442Z,435.4615
2023-04-25T00:53:45.472Z,433.6923
2023-04-25T00:54:46.551Z,433.3846
2023-04-25T00:55:47.582Z,434.5385
2023-04-25T00:56:48.659Z,434.9231
2023-04-25T00:57:49.665Z,436.3077
2023-04-25T00:58:50.660Z,432.8462
2023-04-25T00:59:51.726Z,430.3077
2023-04-25T01:00:52.876Z,430.3077
2023-04-25T01:01:53.881Z,430.2308
2023-04-25T01:02:54.951Z,433.0000
2023-04-25T01:03:56.360Z,432.6923
2023-04-25T01:04:56.975Z,435.8462
2023-04-25T01:05:58.011Z,437.7692
2023-04-25T01:06:59.071Z,440.0769
2023-04-25T01:08:00.120Z,439.5385
2023-04-25T01:09:01.149Z,440.0769
2023-04-25T01:10:02.277Z,440.3846
2023-04-25T01:11:03.244Z,440.2308
2023-04-25T01:12:04.323Z,439.9231
2023-04-25T01:13:05.342Z,438.8462
2023-04-25T01:14:06.416Z,438.6923
2023-04-25T01:15:07.467Z,436.0769
2023-04-25T01:16:08.504Z,432.6923
2023-04-25T01:17:09.595Z,432.5385
2023-04-25T01:18:10.675Z,430.9231
2023-04-25T01:19:11.633Z,432.3846
2023-04-25T01:20:12.659Z,432.1538
2023-04-25T01:21:13.690Z,429.3077
2023-04-25T01:22:14.773Z,431.3846
2023-04-25T01:23:15.793Z,434.7692
2023-04-25T01:24:16.847Z,436.0000
2023-04-25T01:25:17.890Z,435.0769
2023-04-25T01:26:18.912Z,434.8462
2023-04-25T01:27:19.994Z,433.1538
2023-04-25T01:28:21.025Z,432.4615
2023-04-25T01:29:22.061Z,430.9231
2023-04-25T01:30:23.107Z,432.0769
2023-04-25T01:31:24.181Z,431.2308
2023-04-25T01:32:25.274Z,434.3077
2023-04-25T01:33:26.252Z,434.9231
2023-04-25T01:34:27.301Z,434.1538
2023-04-25T01:35:28.330Z,433.2308
2023-04-25T01:36:29.385Z,435.8462
2023-04-25T01:37:30.418Z,433.1538
2023-04-25T01:38:31.443Z,431.0000
2023-04-25T01:39:32.528Z,431.6154
2023-04-25T01:40:33.540Z,432.8462
2023-04-25T01:41:34.611Z,430.4615
2023-04-25T01:42:35.646Z,427.8462
2023-04-25T01:43:36.691Z,431.5385
2023-04-25T01:44:37.745Z,431.5385
2023-04-25T01:45:38.829Z,431.4615
2023-04-25T01:46:39.901Z,433.8462
2023-04-25T01:47:40.955Z,436.1538
2023-04-25T01:48:41.966Z,436.1538
2023-04-25T01:49:42.957Z,437.1538
2023-04-25T01:50:44.012Z,437.1538
2023-04-25T01:51:45.097Z,436.3846
2023-04-25T01:52:46.190Z,436.4615
2023-04-25T01:53:47.133Z,434.8462
2023-04-25T01:54:48.205Z,433.4615
2023-04-25T01:55:49.214Z,434.6923
2023-04-25T01:56:50.276Z,436.1538
2023-04-25T01:57:51.393Z,433.7692
2023-04-25T01:58:52.391Z,431.6923
2023-04-25T01:59:53.453Z,433.6923
2023-04-25T02:00:54.497Z,434.9231
2023-04-25T02:01:55.625Z,434.4615
2023-04-25T02:02:56.719Z,433.3077
2023-04-25T02:03:58.076Z,430.8462
2023-04-25T02:04:58.670Z,431.3846
2023-04-25T02:05:59.724Z,431.9231
2023-04-25T02:07:00.739Z,433.3846
2023-04-25T02:08:01.826Z,435.3846
2023-04-25T02:09:02.845Z,436.2308
2023-04-25T02:10:03.868Z,433.1538
2023-04-25T02:11:04.935Z,431.4615
2023-04-25T02:12:05.979Z,431.3846
2023-04-25T02:13:07.040Z,431.7692
2023-04-25T02:14:08.060Z,434.0000
2023-04-25T02:15:09.103Z,430.6923
2023-04-25T02:16:10.247Z,430.9231
2023-04-25T02:17:11.333Z,430.2308
2023-04-25T02:18:12.331Z,430.3077
2023-04-25T02:19:13.285Z,430.3077
2023-04-25T02:20:14.313Z,430.7692
2023-04-25T02:21:15.358Z,431.3077
2023-04-25T02:22:16.428Z,432.3077
2023-04-25T02:23:17.528Z,435.2308
2023-04-25T02:24:18.488Z,435.0769
2023-04-25T02:25:19.528Z,432.3846
2023-04-25T02:26:20.587Z,432.1538
2023-04-25T02:27:21.629Z,432.6154
2023-04-25T02:28:22.735Z,431.9231
2023-04-25T02:29:23.724Z,431.9231
2023-04-25T02:30:24.768Z,434.9231
2023-04-25T02:31:25.817Z,436.4615
2023-04-25T02:32:26.915Z,435.6154
2023-04-25T02:33:27.966Z,435.3077
2023-04-25T02:34:28.993Z,436.0000
2023-04-25T02:35:30.031Z,436.5385
2023-04-25T02:36:31.066Z,436.2308
2023-04-25T02:37:32.101Z,436.6154
2023-04-25T02:38:33.191Z,433.0769
2023-04-25T02:39:34.202Z,434.0000
2023-04-25T02:40:35.225Z,435.3846
2023-04-25T02:41:36.288Z,438.3077
2023-04-25T02:42:37.330Z,438.6154
2023-04-25T02:43:38.518Z,438.3077
2023-04-25T02:44:39.485Z,436.9231
2023-04-25T02:45:40.548Z,435.4615
2023-04-25T02:46:41.640Z,434.3077
2023-04-25T02:47:42.681Z,434.3077
2023-04-25T02:48:43.707Z,432.2308
2023-04-25T02:49:44.732Z,432.6923
2023-04-25T02:50:45.766Z,435.0000
2023-04-25T02:51:46.804Z,436.2308
2023-04-25T02:52:47.850Z,435.4615
2023-04-25T02:53:49.161Z,437.0769
2023-04-25T02:54:49.920Z,437.9231
2023-04-25T02:55:50.966Z,437.6923
2023-04-25T02:56:52.021Z,437.1538
2023-04-25T02:57:53.084Z,435.7692
2023-04-25T02:58:54.178Z,436.3077
2023-04-25T02:59:55.175Z,436.8462
2023-04-25T03:00:56.236Z,434.6923
2023-04-25T03:01:57.263Z,435.8462
2023-04-25T03:02:58.524Z,436.5385
2023-04-25T03:03:59.401Z,435.3846
2023-04-25T03:05:00.400Z,436.6923
2023-04-25T03:06:01.470Z,436.0000
2023-04-25T03:07:02.498Z,436.7692
2023-04-25T03:08:03.508Z,434.3846
2023-04-25T03:09:04.638Z,430.9231
2023-04-25T03:10:05.614Z,432.0000
2023-04-25T03:11:06.684Z,434.3077
2023-04-25T03:12:07.738Z,434.8462
2023-04-25T03:13:08.781Z,437.6923
2023-04-25T03:14:09.858Z,446.3846
2023-04-25T03:15:10.890Z,446.3846
2023-04-25T03:16:11.992Z,446.9231
2023-04-25T03:17:13.011Z,445.1538
2023-04-25T03:18:14.039Z,443.6154
2023-04-25T03:19:15.099Z,446.1538
2023-04-25T03:20:16.123Z,448.5385
2023-04-25T03:21:17.174Z,449.0769
2023-04-25T03:22:18.239Z,448.5385
2023-04-25T03:23:19.279Z,448.8462
2023-04-25T03:24:20.458Z,451.8462
2023-04-25T03:25:21.364Z,452.3846
2023-04-25T03:26:22.440Z,451.7692
2023-04-25T03:27:23.449Z,452.6923
2023-04-25T03:28:24.508Z,453.2308
2023-04-25T03:29:25.609Z,452.6923
2023-04-25T03:30:26.646Z,454.5385
2023-04-25T03:31:27.642Z,453.4615
2023-04-25T03:32:28.730Z,451.9231
2023-04-25T03:33:29.696Z,453.8462
2023-04-25T03:34:30.806Z,459.0000
2023-04-25T03:35:31.833Z,461.5385
2023-04-25T03:36:32.870Z,457.5385
2023-04-25T03:37:33.892Z,455.5385
2023-04-25T03:38:34.970Z,454.8462
2023-04-25T03:39:35.989Z,451.0769
2023-04-25T03:40:37.071Z,449.9231
2023-04-25T03:41:38.120Z,450.5385
2023-04-25T03:42:39.164Z,451.0769
2023-04-25T03:43:40.195Z,449.0769
2023-04-25T03:44:41.258Z,447.4615
2023-04-25T03:45:42.336Z,448.9231
2023-04-25T03:46:43.312Z,447.9231
2023-04-25T03:47:44.383Z,448.8462
2023-04-25T03:48:45.423Z,447.9231
2023-04-25T03:49:46.477Z,448.8462
2023-04-25T03:50:47.561Z,449.2308
2023-04-25T03:51:48.562Z,449.3077
2023-04-25T03:52:49.621Z,449.3846
2023-04-25T03:53:50.833Z,450.1538
2023-04-25T03:54:51.683Z,450.3077
2023-04-25T03:55:52.783Z,449.4615
2023-04-25T03:56:53.783Z,450.6154
2023-04-25T03:57:54.805Z,451.3077
2023-04-25T03:58:55.864Z,450.9231
2023-04-25T03:59:56.891Z,451.0769
2023-04-25T04:00:57.991Z,450.9231
2023-04-25T04:01:59.013Z,450.6923
2023-04-25T04:03:00.201Z,449.8462
2023-04-25T04:04:01.299Z,450.0769
2023-04-25T04:05:02.362Z,450.2308
2023-04-25T04:06:03.218Z,448.6154
2023-04-25T04:07:04.220Z,450.1538
2023-04-25T04:08:05.261Z,452.0769
2023-04-25T04:09:06.296Z,451.9231
2023-04-25T04:10:07.386Z,450.5385
2023-04-25T04:11:08.466Z,447.3846
2023-04-25T04:12:09.468Z,446.6154
2023-04-25T04:13:10.488Z,448.0000
2023-04-25T04:14:11.567Z,448.6923
2023-04-25T04:15:12.587Z,449.0000
2023-04-25T04:16:13.672Z,449.1538
2023-04-25T04:17:14.671Z,448.3077
2023-04-25T04:18:15.722Z,447.0000
2023-04-25T04:19:16.765Z,448.2308
2023-04-25T04:20:17.809Z,449.2308
2023-04-25T04:21:18.858Z,450.1538
2023-04-25T04:22:19.926Z,450.7692
2023-04-25T04:23:21.008Z,454.1538
2023-04-25T04:24:22.016Z,455.9231
2023-04-25T04:25:23.034Z,456.6154
2023-04-25T04:26:24.128Z,455.3077
2023-04-25T04:27:25.274Z,455.3077
2023-04-25T04:28:26.187Z,453.5385
2023-04-25T04:29:27.251Z,453.2308
2023-04-25T04:30:28.261Z,453.3077
2023-04-25T04:31:29.387Z,453.3846
2023-04-25T04:32:30.388Z,453.6154
2023-04-25T04:33:31.401Z,452.6923
2023-04-25T04:34:32.425Z,452.9231
2023-04-25T04:35:33.488Z,451.8462
2023-04-25T04:36:34.561Z,452.0000
2023-04-25T04:37:35.569Z,453.5385
2023-04-25T04:38:36.620Z,454.3846
2023-04-25T04:39:37.665Z,454.6923
2023-04-25T04:40:38.724Z,456.5385
2023-04-25T04:41:39.766Z,457.6923
2023-04-25T04:42:40.808Z,461.6154
2023-04-25T04:43:41.822Z,467.0000
2023-04-25T04:44:42.870Z,470.7692
2023-04-25T04:45:43.916Z,471.5385
2023-04-25T04:46:44.992Z,471.5385
2023-04-25T04:47:46.035Z,471.8462
2023-04-25T04:48:47.040Z,471.6154
2023-04-25T04:49:48.081Z,471.1538
2023-04-25T04:50:49.128Z,464.3077
2023-04-25T04:51:50.222Z,461.8462
2023-04-25T04:52:51.242Z,462.3846
2023-04-25T04:53:52.687Z,461.8462
2023-04-25T04:54:53.326Z,459.8462
2023-04-25T04:55:54.339Z,457.6923
2023-04-25T04:56:55.424Z,455.1538
2023-04-25T04:57:56.540Z,457.3077
2023-04-25T04:58:57.501Z,455.5385
2023-04-25T04:59:58.597Z,453.6154
2023-04-25T05:00:59.585Z,451.5385
2023-04-25T05:02:00.812Z,449.5385
2023-04-25T05:03:01.841Z,449.2308
2023-04-25T05:04:02.915Z,450.6923
2023-04-25T05:05:03.787Z,450.2308
2023-04-25T05:06:04.904Z,451.5385
2023-04-25T05:07:05.956Z,454.0769
2023-04-25T05:08:06.975Z,455.3846
2023-04-25T05:09:07.970Z,455.8462
2023-04-25T05:10:09.057Z,457.9231
2023-04-25T05:11:10.075Z,458.6154
2023-04-25T05:12:11.321Z,460.3077
2023-04-25T05:13:12.249Z,461.3846
2023-04-25T05:14:13.307Z,461.3846
2023-04-25T05:15:14.361Z,459.9231
2023-04-25T05:16:15.337Z,460.4615
2023-04-25T05:17:16.360Z,459.0000
2023-04-25T05:18:17.408Z,458.6923
2023-04-25T05:19:18.509Z,458.3846
2023-04-25T05:20:19.479Z,457.0769
2023-04-25T05:21:20.489Z,454.6154
2023-04-25T05:22:21.564Z,454.0769
2023-04-25T05:23:22.626Z,454.8462
2023-04-25T05:24:23.619Z,457.5385
2023-04-25T05:25:24.664Z,458.5385
2023-04-25T05:26:25.730Z,464.6154
2023-04-25T05:27:26.764Z,464.4615
2023-04-25T05:28:27.844Z,468.2308
2023-04-25T05:29:28.842Z,470.4615
2023-04-25T05:30:29.877Z,472.1538
2023-04-25T05:31:30.996Z,474.3077
2023-04-25T05:32:32.198Z,473.9231
2023-04-25T05:33:33.090Z,474.9231
2023-04-25T05:34:34.089Z,477.9231
2023-04-25T05:35:35.199Z,475.7692
2023-04-25T05:36:36.166Z,476.6923
2023-04-25T05:37:37.200Z,475.9231
2023-04-25T05:38:38.301Z,472.3846
2023-04-25T05:39:39.292Z,470.0769
2023-04-25T05:40:40.357Z,469.6923
2023-04-25T05:41:41.387Z,470.6154
2023-04-25T05:42:42.453Z,470.8462
2023-04-25T05:43:43.493Z,472.1538
2023-04-25T05:44:44.522Z,471.6923
2023-04-25T05:45:45.594Z,470.6154
2023-04-25T05:46:46.647Z,470.9231
2023-04-25T05:47:47.692Z,470.7692
2023-04-25T05:48:48.734Z,468.0769
2023-04-25T05:49:49.735Z,466.3077
2023-04-25T05:50:50.787Z,466.8462
2023-04-25T05:51:51.821Z,465.5385
2023-04-25T05:52:52.854Z,466.3846
2023-04-25T05:53:54.159Z,464.6923
2023-04-25T05:54:54.997Z,458.6154
2023-04-25T05:55:56.066Z,453.0769
2023-04-25T05:56:57.085Z,452.8462
2023-04-25T05:57:58.103Z,454.9231
2023-04-25T05:58:59.196Z,452.1538
2023-04-25T06:00:00.248Z,452.3846
2023-04-25T06:01:01.241Z,448.3077
2023-04-25T06:02:02.307Z,446.4615
2023-04-25T06:03:03.505Z,448.2308
2023-04-25T06:04:04.916Z,449.8462
2023-04-25T06:05:05.752Z,450.4615
2023-04-25T06:06:06.816Z,448.5385
2023-04-25T06:07:07.530Z,450.8462
2023-04-25T06:08:08.589Z,452.6154
2023-04-25T06:09:09.647Z,454.4615
2023-04-25T06:10:10.710Z,451.6923
2023-04-25T06:11:11.701Z,453.6923
2023-04-25T06:12:12.743Z,451.9231
2023-04-25T06:13:13.806Z,451.1538
2023-04-25T06:14:14.863Z,450.1538
2023-04-25T06:15:27.273Z,448.5385
2023-04-25T06:16:17.023Z,450.0000
2023-04-25T06:17:18.047Z,447.3846
2023-04-25T06:18:19.054Z,446.9231
2023-04-25T06:19:20.090Z,449.1538
2023-04-25T06:20:21.170Z,450.3077
2023-04-25T06:21:22.392Z,451.5385
2023-04-25T06:22:23.238Z,450.8462
2023-04-25T06:23:24.266Z,452.6923
2023-04-25T06:24:25.326Z,454.4615
2023-04-25T06:25:26.426Z,453.2308
2023-04-25T06:26:27.447Z,457.5385
2023-04-25T06:27:28.470Z,462.2308
2023-04-25T06:28:29.550Z,466.6154
2023-04-25T06:29:30.592Z,468.3846
2023-04-25T06:30:31.655Z,467.9231
2023-04-25T06:31:32.721Z,471.3846
2023-04-25T06:32:33.784Z,466.0000
2023-04-25T06:33:34.785Z,463.0000
2023-04-25T06:34:35.848Z,464.3077
2023-04-25T06:35:36.918Z,463.8462
2023-04-25T06:36:37.933Z,469.3846
2023-04-25T06:37:38.959Z,472.0769
2023-04-25T06:38:40.036Z,470.5385
2023-04-25T06:39:41.475Z,469.8462
2023-04-25T06:40:42.141Z,470.5385
2023-04-25T06:41:43.174Z,470.2308
2023-04-25T06:42:44.259Z,472.5385
2023-04-25T06:43:45.412Z,470.6154
2023-04-25T06:44:46.394Z,470.3077
2023-04-25T06:45:48.620Z,467.2308
2023-04-25T06:46:48.547Z,466.6154
2023-04-25T06:47:49.637Z,466.7692
2023-04-25T06:48:50.778Z,464.8462
2023-04-25T06:49:51.637Z,465.4615
2023-04-25T06:50:52.748Z,463.6923
2023-04-25T06:51:53.772Z,462.6923
2023-04-25T06:52:54.823Z,464.4615
2023-04-25T06:53:55.865Z,463.3846
2023-04-25T06:54:56.900Z,460.2308
2023-04-25T06:55:57.993Z,458.8462
2023-04-25T06:56:58.984Z,459.7692
2023-04-25T06:58:00.067Z,459.3077
2023-04-25T06:59:01.137Z,460.9231
2023-04-25T07:00:02.589Z,460.3077
2023-04-25T07:01:03.268Z,459.0769
2023-04-25T07:02:04.254Z,455.6154
2023-04-25T07:03:05.434Z,454.0769
2023-04-25T07:04:06.476Z,453.7692
2023-04-25T07:05:07.420Z,450.4615
2023-04-25T07:06:08.483Z,451.2308
2023-04-25T07:07:09.482Z,452.9231
2023-04-25T07:08:10.524Z,453.2308
2023-04-25T07:09:11.613Z,452.5385
2023-04-25T07:10:12.642Z,453.1538
2023-04-25T07:11:13.730Z,453.4615
2023-04-25T07:12:14.735Z,454.4615
2023-04-25T07:13:15.773Z,454.2308
2023-04-25T07:14:16.846Z,451.6154
2023-04-25T07:15:17.872Z,449.2308
2023-04-25T07:16:19.033Z,447.6154
2023-04-25T07:17:19.983Z,448.3077
2023-04-25T07:18:21.034Z,448.0769
2023-04-25T07:19:22.023Z,447.5385
2023-04-25T07:20:23.132Z,447.5385
2023-04-25T07:21:24.216Z,445.2308
2023-04-25T07:22:25.232Z,442.3846
2023-04-25T07:23:26.280Z,442.3077
2023-04-25T07:24:27.319Z,442.7692
2023-04-25T07:25:28.370Z,441.4615
2023-04-25T07:26:29.453Z,442.1538
2023-04-25T07:27:30.480Z,444.4615
2023-04-25T07:28:32.156Z,445.0000
2023-04-25T07:29:32.673Z,443.4615
2023-04-25T07:30:33.554Z,443.5385
2023-04-25T07:31:34.652Z,444.5385
2023-04-25T07:32:35.725Z,444.3077
2023-04-25T07:33:36.740Z,444.2308
2023-04-25T07:34:37.790Z,443.5385
2023-04-25T07:35:38.886Z,442.3077
2023-04-25T07:36:39.937Z,441.4615
2023-04-25T07:37:40.938Z,442.3077
2023-04-25T07:38:42.122Z,440.3846
2023-04-25T07:39:43.105Z,442.8462
2023-04-25T07:40:44.123Z,439.6923
2023-04-25T07:41:45.242Z,441.2308
2023-04-25T07:42:46.262Z,442.9231
2023-04-25T07:43:47.271Z,441.6154
2023-04-25T07:44:48.326Z,438.1538
2023-04-25T07:45:49.407Z,441.3846
2023-04-25T07:46:50.502Z,442.6923
2023-04-25T07:47:51.584Z,441.7692
2023-04-25T07:48:52.620Z,440.1538
2023-04-25T07:49:53.520Z,438.3077
2023-04-25T07:50:54.721Z,440.5385
2023-04-25T07:51:55.664Z,441.1538
2023-04-25T07:52:56.674Z,439.0769
2023-04-25T07:53:57.722Z,441.0000
2023-04-25T07:54:58.996Z,444.6154
2023-04-25T07:55:59.801Z,445.5385
2023-04-25T07:57:00.894Z,446.0769
2023-04-25T07:58:01.889Z,445.1538
2023-04-25T07:59:02.961Z,442.2308
2023-04-25T08:00:04.014Z,443.0769
2023-04-25T08:01:05.042Z,443.3846
2023-04-25T08:02:06.121Z,444.0000
2023-04-25T08:03:07.235Z,444.5385
2023-04-25T08:04:08.339Z,442.2308
2023-04-25T08:05:09.372Z,440.3846
2023-04-25T08:06:10.448Z,438.8462
2023-04-25T08:07:11.369Z,439.3846
2023-04-25T08:08:12.376Z,443.1538
2023-04-25T08:09:13.424Z,447.6154
2023-04-25T08:10:14.446Z,448.1538
2023-04-25T08:11:15.648Z,449.3077
2023-04-25T08:12:16.740Z,444.7692
2023-04-25T08:13:17.732Z,441.3846
2023-04-25T08:14:18.812Z,441.7692
2023-04-25T08:15:19.805Z,440.9231
2023-04-25T08:16:20.906Z,442.3077
2023-04-25T08:17:21.957Z,440.3077
2023-04-25T08:18:22.985Z,441.2308
2023-04-25T08:19:23.991Z,439.6154
2023-04-25T08:20:25.039Z,438.8462
2023-04-25T08:21:26.084Z,440.1538
2023-04-25T08:22:27.171Z,441.5385
2023-04-25T08:23:28.203Z,440.6154
2023-04-25T08:24:29.213Z,441.6154
2023-04-25T08:25:30.316Z,444.6923
2023-04-25T08:26:31.357Z,445.4615
2023-04-25T08:27:32.457Z,449.6923
2023-04-25T08:28:33.458Z,451.2308
2023-04-25T08:29:34.503Z,451.4615
2023-04-25T08:30:35.536Z,449.6154
2023-04-25T08:31:36.589Z,445.7692
2023-04-25T08:32:37.711Z,449.7692
2023-04-25T08:33:38.684Z,454.3077
2023-04-25T08:34:39.754Z,453.3077
2023-04-25T08:35:40.774Z,447.8462
2023-04-25T08:36:41.809Z,447.6154
2023-04-25T08:37:42.921Z,445.5385
2023-04-25T08:38:43.938Z,445.2308
2023-04-25T08:39:44.962Z,445.3846
2023-04-25T08:40:46.027Z,448.0000
2023-04-25T08:41:47.086Z,449.6154
2023-04-25T08:42:48.154Z,449.6154
2023-04-25T08:43:49.159Z,449.2308
2023-04-25T08:44:50.289Z,447.3077
2023-04-25T08:45:51.290Z,446.6923
2023-04-25T08:46:52.359Z,447.3846
2023-04-25T08:47:53.957Z,444.6154
2023-04-25T08:48:56.548Z,443.2308
2023-04-25T08:49:55.443Z,442.8462
2023-04-25T08:50:56.430Z,444.8462
2023-04-25T08:51:57.483Z,445.6154
2023-04-25T08:52:58.570Z,443.9231
2023-04-25T08:54:06.832Z,444.2308
2023-04-25T08:55:00.564Z,446.6923
2023-04-25T08:56:01.670Z,448.8462
2023-04-25T08:57:02.691Z,447.1538
2023-04-25T08:58:03.751Z,446.1538
2023-04-25T08:59:04.807Z,444.7692
2023-04-25T09:00:05.830Z,443.3846
2023-04-25T09:01:06.982Z,447.3077
2023-04-25T09:02:07.970Z,449.6154
2023-04-25T09:03:09.328Z,451.1538
2023-04-25T09:04:10.126Z,449.3846
2023-04-25T09:05:11.063Z,448.5385
2023-04-25T09:06:12.108Z,447.0000
2023-04-25T09:07:13.147Z,446.0769
2023-04-25T09:08:14.237Z,446.7692
2023-04-25T09:09:15.244Z,446.0000
2023-04-25T09:10:16.320Z,443.6923
2023-04-25T09:11:17.508Z,445.9231
2023-04-25T09:12:18.399Z,446.3846
2023-04-25T09:13:19.478Z,448.0000
2023-04-25T09:14:20.505Z,448.0000
2023-04-25T09:15:21.520Z,449.0000
2023-04-25T09:16:22.790Z,452.5385
2023-04-25T09:17:23.652Z,455.0000
2023-04-25T09:18:29.852Z,452.8462
2023-04-25T09:19:38.843Z,450.0000
2023-04-25T09:20:26.776Z,447.1538
2023-04-25T09:21:27.815Z,443.8462
2023-04-25T09:22:28.889Z,442.4615
2023-04-25T09:23:29.907Z,440.0769
2023-04-25T09:24:30.982Z,438.9231
2023-04-25T09:25:32.178Z,445.4615
2023-04-25T09:26:33.112Z,452.3077
2023-04-25T09:27:34.109Z,450.6923
2023-04-25T09:28:35.206Z,449.0769
2023-04-25T09:29:36.216Z,444.6923
2023-04-25T09:30:37.263Z,444.2308
2023-04-25T09:31:38.373Z,445.5385
2023-04-25T09:32:39.389Z,447.2308
2023-04-25T09:33:40.452Z,442.6923
2023-04-25T09:34:41.456Z,447.7692
2023-04-25T09:35:42.518Z,449.5385
2023-04-25T09:36:43.587Z,453.3077
2023-04-25T09:37:44.614Z,452.6923
2023-04-25T09:38:45.695Z,452.6154
2023-04-25T09:39:46.675Z,452.3077
2023-04-25T09:40:47.712Z,451.0769
2023-04-25T09:41:48.756Z,448.6923
2023-04-25T09:42:49.812Z,444.1538
2023-04-25T09:43:50.904Z,441.0000
2023-04-25T09:44:51.882Z,440.6154
2023-04-25T09:45:53.025Z,438.0000
2023-04-25T09:46:53.983Z,440.3846
2023-04-25T09:47:55.031Z,439.7692
2023-04-25T09:48:56.193Z,437.1538
2023-04-25T09:49:57.222Z,433.7692
2023-04-25T09:50:58.222Z,434.3846
2023-04-25T09:51:59.314Z,433.8462
2023-04-25T09:53:00.334Z,436.8462
2023-04-25T09:54:01.433Z,433.6923
2023-04-25T09:55:02.446Z,433.1538
2023-04-25T09:56:03.517Z,432.1538
2023-04-25T09:57:04.563Z,434.0000
2023-04-25T09:58:05.594Z,438.6923
2023-04-25T09:59:06.669Z,431.3846
2023-04-25T10:00:07.675Z,429.0769
2023-04-25T10:01:08.772Z,431.0000
2023-04-25T10:02:09.830Z,433.2308
2023-04-25T10:03:10.837Z,437.3077
2023-04-25T10:04:12.063Z,437.6923
2023-04-25T10:05:13.030Z,434.1538
2023-04-25T10:06:13.948Z,433.3077
2023-04-25T10:07:15.105Z,431.7692
2023-04-25T10:08:16.044Z,431.8462
2023-04-25T10:09:17.164Z,433.5385
2023-04-25T10:10:18.245Z,429.2308
2023-04-25T10:11:19.220Z,427.5385
2023-04-25T10:12:20.238Z,406.7692
2023-04-25T10:13:21.299Z,417.3846
2023-04-25T10:14:22.472Z,424.3077
2023-04-25T10:15:23.491Z,427.7692
2023-04-25T10:16:24.488Z,428.5385
2023-04-25T10:17:25.505Z,429.3077
2023-04-25T10:18:26.586Z,429.4615
2023-04-25T10:19:27.625Z,433.7692
2023-04-25T10:20:28.658Z,432.1538
2023-04-25T10:21:29.657Z,429.9231
2023-04-25T10:22:30.709Z,430.4615
2023-04-25T10:23:31.768Z,431.3077
2023-04-25T10:24:32.851Z,433.5385
2023-04-25T10:25:33.859Z,435.6154
2023-04-25T10:26:34.913Z,436.1538
2023-04-25T10:27:36.023Z,437.0000
2023-04-25T10:28:37.024Z,437.0000
2023-04-25T10:29:38.108Z,436.9231
2023-04-25T10:30:39.136Z,436.3077
2023-04-25T10:31:40.237Z,408.4615
2023-04-25T10:32:41.806Z,420.3846
2023-04-25T10:33:42.234Z,427.4615
2023-04-25T10:34:43.386Z,425.9231
2023-04-25T10:35:44.258Z,426.6923
2023-04-25T10:36:45.276Z,429.6923
2023-04-25T10:37:46.339Z,434.8462
2023-04-25T10:38:47.377Z,437.2308
2023-04-25T10:39:48.474Z,436.7692
2023-04-25T10:40:49.495Z,436.5385
2023-04-25T10:41:50.537Z,433.6154
2023-04-25T10:42:51.904Z,434.6923
2023-04-25T10:43:52.952Z,432.0000
2023-04-25T10:44:53.800Z,429.1538
2023-04-25T10:45:54.810Z,433.2308
2023-04-25T10:46:55.893Z,434.9231
2023-04-25T10:47:56.991Z,434.6923
2023-04-25T10:48:57.969Z,435.5385
2023-04-25T10:49:59.044Z,432.1538
2023-04-25T10:51:00.147Z,431.0000
2023-04-25T10:52:01.077Z,429.9231
2023-04-25T10:53:02.142Z,430.8462
2023-04-25T10:54:03.198Z,433.9231
2023-04-25T10:55:04.289Z,432.7692
2023-04-25T10:56:05.283Z,432.3846
2023-04-25T10:57:06.277Z,434.2308
2023-04-25T10:58:07.346Z,434.8462
2023-04-25T10:59:08.436Z,438.1538
2023-04-25T11:00:09.502Z,438.3846
2023-04-25T11:01:10.560Z,424.6923
2023-04-25T11:02:11.681Z,418.1538
2023-04-25T11:03:12.654Z,427.2308
2023-04-25T11:04:13.786Z,436.9231
2023-04-25T11:05:14.729Z,436.3077
2023-04-25T11:06:15.728Z,435.6154
2023-04-25T11:07:16.853Z,436.1538
2023-04-25T11:08:17.792Z,440.9231
2023-04-25T11:09:18.889Z,439.5385
2023-04-25T11:10:19.923Z,441.3846
2023-04-25T11:11:20.942Z,442.8462
2023-04-25T11:12:21.988Z,437.2308
2023-04-25T11:13:23.033Z,438.2308
2023-04-25T11:14:24.088Z,437.6154
2023-04-25T11:15:25.174Z,437.0769
2023-04-25T11:16:28.452Z,432.8462
2023-04-25T11:17:27.353Z,435.3077
2023-04-25T11:18:28.300Z,439.0000
2023-04-25T11:19:29.374Z,439.8462
2023-04-25T11:20:30.406Z,442.0000
2023-04-25T11:21:31.391Z,440.4615
2023-04-25T11:22:32.434Z,444.1538
2023-04-25T11:23:33.475Z,449.9231
2023-04-25T11:24:34.527Z,449.8462
2023-04-25T11:25:37.789Z,442.8462
2023-04-25T11:26:36.587Z,438.7692
2023-04-25T11:27:37.636Z,439.6923
2023-04-25T11:28:38.736Z,438.1538
2023-04-25T11:29:39.775Z,437.4615
2023-04-25T11:30:40.834Z,440.4615
2023-04-25T11:31:41.910Z,438.8462
2023-04-25T11:32:42.924Z,437.1538
2023-04-25T11:33:44.014Z,432.3846
2023-04-25T11:34:45.100Z,433.6154
2023-04-25T11:35:46.169Z,430.8462
2023-04-25T11:36:47.188Z,440.4615
2023-04-25T11:37:48.216Z,451.8462
2023-04-25T11:38:49.306Z,447.6154
2023-04-25T11:39:50.343Z,438.0000
2023-04-25T11:40:51.423Z,433.3846
2023-04-25T11:41:52.431Z,438.2308
2023-04-25T11:42:55.282Z,445.3846
2023-04-25T11:43:54.810Z,444.9231
2023-04-25T11:44:55.610Z,445.1538
2023-04-25T11:45:56.711Z,442.6154
2023-04-25T11:46:57.617Z,437.0769
2023-04-25T11:47:58.731Z,434.6923
2023-04-25T11:48:59.703Z,433.0000
2023-04-25T11:50:01.761Z,434.0000
2023-04-25T11:51:01.839Z,435.0769
2023-04-25T11:52:03.176Z,434.9231
2023-04-25T11:53:03.862Z,434.6923
2023-04-25T11:54:04.932Z,434.3077
2023-04-25T11:55:05.985Z,432.0000
2023-04-25T11:56:07.030Z,428.9231
2023-04-25T11:57:08.031Z,428.6923